Time;durP1;ratioP1;P1;durP2;ratioP2;P2;SDS_P1;SDS_P2;PMS_P1;PMS_P2;Temp;Humidity;BMP_temperature;BMP_pressure;BME280_temperature;BME280_humidity;BME280_pressure;Samples;Min_cycle;Max_cycle;Signal;HPM_P1;HPM_P2
2021/10/08 00:01:17;;;;;;;11.50;6.50;;;;;;;8.04;100.00;94716.00;5072971;28;20199;-77
2021/10/08 00:03:43;;;;;;;13.63;6.95;;;;;;;7.95;100.00;94717.78;5072498;28;20482;-77
2021/10/08 00:06:11;;;;;;;11.73;6.10;;;;;;;7.91;100.00;94716.44;5072973;28;20320;-78
2021/10/08 00:08:39;;;;;;;14.70;6.40;;;;;;;7.92;100.00;94718.91;5073168;28;20604;-77
2021/10/08 00:11:05;;;;;;;15.03;5.93;;;;;;;7.93;100.00;94720.53;5072456;28;20234;-78
2021/10/08 00:13:32;;;;;;;17.13;5.77;;;;;;;7.96;100.00;94716.81;5072284;28;20264;-77
2021/10/08 00:16:00;;;;;;;11.97;6.03;;;;;;;7.94;100.00;94723.94;5073153;28;20199;-77
2021/10/08 00:18:27;;;;;;;14.13;6.47;;;;;;;7.95;100.00;94723.78;5072108;28;20248;-77
2021/10/08 00:20:54;;;;;;;14.60;6.20;;;;;;;7.97;100.00;94718.41;5072790;28;20194;-77
2021/10/08 00:23:21;;;;;;;13.20;6.40;;;;;;;7.88;100.00;94720.19;5072843;28;20271;-77
2021/10/08 00:25:48;;;;;;;12.53;5.73;;;;;;;7.75;100.00;94720.66;5072885;28;20208;-78
2021/10/08 00:28:14;;;;;;;12.83;6.13;;;;;;;7.67;100.00;94727.63;5068295;28;20203;-77
2021/10/08 00:30:40;;;;;;;12.47;6.93;;;;;;;7.72;100.00;94726.16;5052420;28;20659;-77
2021/10/08 00:33:07;;;;;;;15.37;7.47;;;;;;;7.63;100.00;94724.53;5052757;28;20203;-78
2021/10/08 00:35:33;;;;;;;14.70;7.07;;;;;;;7.64;100.00;94723.56;5052686;28;20229;-77
2021/10/08 00:38:03;;;;;;;20.40;6.77;;;;;;;7.64;100.00;94718.34;5052262;28;20199;-78
2021/10/08 00:40:33;;;;;;;16.27;6.80;;;;;;;7.66;100.00;94715.59;5052549;28;20237;-77
2021/10/08 00:43:00;;;;;;;13.60;7.27;;;;;;;7.55;100.00;94719.31;5052723;28;20203;-77
2021/10/08 00:45:26;;;;;;;17.37;7.00;;;;;;;7.58;100.00;94725.00;5052448;28;20277;-77
2021/10/08 00:47:57;;;;;;;19.10;8.53;;;;;;;7.58;100.00;94725.00;5052567;28;20204;-77
2021/10/08 00:50:23;;;;;;;15.53;6.97;;;;;;;7.62;100.00;94725.50;5052282;28;20258;-77
2021/10/08 00:52:49;;;;;;;10.97;7.07;;;;;;;7.87;100.00;94709.97;5052670;28;20611;-77
2021/10/08 00:55:16;;;;;;;11.23;6.53;;;;;;;7.81;100.00;94718.38;5052131;28;20207;-77
2021/10/08 00:57:45;;;;;;;9.03;5.70;;;;;;;7.75;100.00;94710.25;5052395;28;20199;-78
2021/10/08 01:00:13;;;;;;;10.77;6.30;;;;;;;7.71;100.00;94714.16;5055199;28;20226;-77
2021/10/08 01:02:40;;;;;;;11.13;6.57;;;;;;;7.63;100.00;94715.91;5056389;28;20233;-77
2021/10/08 01:05:07;;;;;;;14.47;7.10;;;;;;;7.57;100.00;94702.59;5055756;28;20227;-78
2021/10/08 01:07:34;;;;;;;13.57;6.83;;;;;;;7.47;100.00;94701.09;5056142;28;20245;-78
2021/10/08 01:10:00;;;;;;;15.63;7.33;;;;;;;7.48;100.00;94698.34;5056105;28;20207;-77
2021/10/08 01:12:27;;;;;;;16.40;7.77;;;;;;;7.53;100.00;94700.47;5056231;28;20247;-78
2021/10/08 01:14:54;;;;;;;14.40;7.70;;;;;;;7.72;100.00;94697.56;5056000;28;20207;-77
2021/10/08 01:17:21;;;;;;;17.07;7.47;;;;;;;7.59;100.00;94707.63;5056152;28;20207;-78
2021/10/08 01:19:48;;;;;;;15.23;7.20;;;;;;;7.58;100.00;94700.81;5056061;28;20198;-77
2021/10/08 01:22:16;;;;;;;12.70;6.93;;;;;;;7.69;100.00;94689.28;5055750;28;20273;-78
2021/10/08 01:24:42;;;;;;;12.17;6.60;;;;;;;7.73;100.00;94693.22;5056008;28;20231;-77
2021/10/08 01:27:09;;;;;;;12.67;6.53;;;;;;;7.63;100.00;94697.72;5055972;28;20207;-78
2021/10/08 01:29:50;;;;;;;17.73;6.53;;;;;;;7.52;100.00;94697.06;5055972;28;20249;-77
2021/10/08 01:32:16;;;;;;;13.67;6.10;;;;;;;7.54;100.00;94697.72;5055762;28;20752;-78
2021/10/08 01:34:42;;;;;;;12.50;6.63;;;;;;;7.53;100.00;94706.47;5055643;28;20195;-78
2021/10/08 01:37:09;;;;;;;27.50;7.27;;;;;;;7.44;100.00;94697.03;5055965;28;20199;-78
2021/10/08 01:39:37;;;;;;;14.57;6.43;;;;;;;7.38;100.00;94688.09;5055718;28;20200;-77
2021/10/08 01:42:03;;;;;;;15.93;7.17;;;;;;;7.48;100.00;94689.75;5055710;28;20199;-78
2021/10/08 01:44:30;;;;;;;15.47;6.70;;;;;;;7.44;100.00;94691.03;5055609;28;20227;-78
2021/10/08 01:46:56;;;;;;;15.17;6.83;;;;;;;7.41;100.00;94686.94;5055360;28;20604;-78
2021/10/08 01:49:22;;;;;;;16.10;7.07;;;;;;;7.44;100.00;94678.03;5055338;28;20249;-77
2021/10/08 01:51:49;;;;;;;13.93;6.33;;;;;;;7.30;100.00;94679.47;5055718;28;20204;-77
2021/10/08 01:54:15;;;;;;;13.50;6.40;;;;;;;7.30;100.00;94674.28;5055560;28;20230;-77
2021/10/08 01:56:45;;;;;;;16.20;7.23;;;;;;;7.29;100.00;94676.03;5055463;28;20207;-77
2021/10/08 01:59:11;;;;;;;19.73;7.13;;;;;;;7.26;100.00;94672.94;5055298;28;20291;-78
2021/10/08 02:01:38;;;;;;;17.33;7.33;;;;;;;7.34;100.00;94673.78;5055252;28;20261;-77
2021/10/08 02:04:05;;;;;;;12.70;6.57;;;;;;;7.29;100.00;94675.22;5055063;28;20249;-78
2021/10/08 02:06:31;;;;;;;16.97;6.77;;;;;;;7.22;100.00;94672.44;5055303;28;20249;-77
2021/10/08 02:08:58;;;;;;;12.80;6.40;;;;;;;7.13;100.00;94666.44;5055186;28;20250;-77
2021/10/08 02:11:24;;;;;;;9.03;5.43;;;;;;;6.96;100.00;94678.53;5054876;28;20249;-77
2021/10/08 02:13:53;;;;;;;18.93;7.20;;;;;;;6.83;100.00;94670.34;5054936;28;20544;-77
2021/10/08 02:16:20;;;;;;;12.17;6.83;;;;;;;6.91;100.00;94678.19;5054952;28;20200;-77
2021/10/08 02:18:46;;;;;;;13.83;6.93;;;;;;;6.79;100.00;94676.81;5054874;28;20203;-77
2021/10/08 02:21:13;;;;;;;13.63;7.00;;;;;;;6.69;100.00;94673.53;5066358;28;20295;-77
2021/10/08 02:23:39;;;;;;;23.57;7.17;;;;;;;6.61;100.00;94677.72;5074931;28;20207;-77
2021/10/08 02:26:06;;;;;;;15.40;7.20;;;;;;;6.75;100.00;94680.69;5074747;28;20665;-77
2021/10/08 02:28:32;;;;;;;18.95;9.48;;;;;;;6.81;100.00;94670.50;5074265;28;20774;-77
2021/10/08 02:31:00;;;;;;;18.47;8.70;;;;;;;6.89;100.00;94669.72;5074611;28;20252;-77
2021/10/08 02:33:26;;;;;;;15.40;7.20;;;;;;;6.80;100.00;94675.84;5074856;28;20276;-77
2021/10/08 02:35:53;;;;;;;14.00;6.70;;;;;;;6.59;100.00;94671.03;5074721;28;20202;-77
2021/10/08 02:38:20;;;;;;;25.83;9.17;;;;;;;6.86;100.00;94672.63;5074627;28;20253;-76
2021/10/08 02:40:47;;;;;;;18.13;8.17;;;;;;;6.67;100.00;94674.47;5074525;28;20202;-77
2021/10/08 02:43:13;;;;;;;23.77;9.83;;;;;;;6.65;100.00;94673.81;5074344;28;20600;-77
2021/10/08 02:45:40;;;;;;;18.50;8.90;;;;;;;6.65;100.00;94673.81;5074213;28;20317;-77
2021/10/08 02:48:08;;;;;;;19.50;8.67;;;;;;;6.76;100.00;94674.53;5074505;28;20260;-76
2021/10/08 02:50:34;;;;;;;18.60;8.83;;;;;;;6.73;100.00;94677.41;5074175;28;20202;-77
2021/10/08 02:53:01;;;;;;;22.33;8.77;;;;;;;6.53;100.00;94675.06;5074308;28;20332;-77
2021/10/08 02:55:27;;;;;;;22.20;9.67;;;;;;;6.45;100.00;94680.19;5074264;28;20207;-77
2021/10/08 02:57:54;;;;;;;23.67;9.90;;;;;;;6.52;100.00;94680.41;5074108;28;20199;-77
2021/10/08 03:00:20;;;;;;;19.60;10.03;;;;;;;6.46;100.00;94685.25;5073995;28;20244;-77
2021/10/08 03:02:46;;;;;;;21.37;9.53;;;;;;;6.45;100.00;94688.78;5074253;28;20253;-77
2021/10/08 03:05:14;;;;;;;20.97;9.67;;;;;;;6.48;100.00;94682.50;5073789;28;20222;-76
2021/10/08 03:07:41;;;;;;;18.87;9.27;;;;;;;6.37;100.00;94693.09;5074089;28;20248;-77
2021/10/08 03:10:10;;;;;;;22.87;10.47;;;;;;;6.40;100.00;94692.81;5074068;28;20244;-77
2021/10/08 03:12:36;;;;;;;28.83;11.70;;;;;;;6.61;100.00;94689.84;5073752;28;20539;-76
2021/10/08 03:15:03;;;;;;;25.13;11.33;;;;;;;6.52;100.00;94693.38;5073931;28;20229;-76
2021/10/08 03:17:30;;;;;;;24.30;10.67;;;;;;;6.50;100.00;94688.34;5073985;28;20210;-77
2021/10/08 03:19:56;;;;;;;22.33;11.45;;;;;;;6.35;100.00;94690.66;5073009;28;20434;-76
2021/10/08 03:22:24;;;;;;;21.83;9.90;;;;;;;6.14;100.00;94690.97;5072957;28;20696;-77
2021/10/08 03:24:50;;;;;;;24.53;10.43;;;;;;;6.11;100.00;94691.28;5073551;28;20230;-78
2021/10/08 03:27:17;;;;;;;23.77;10.50;;;;;;;6.11;100.00;94688.69;5073592;28;20203;-77
2021/10/08 03:29:43;;;;;;;21.33;10.40;;;;;;;5.97;100.00;94687.44;5073657;28;20252;-78
2021/10/08 03:32:10;;;;;;;18.80;10.03;;;;;;;5.89;100.00;94685.56;5073646;28;20202;-77
2021/10/08 03:34:36;;;;;;;22.43;11.10;;;;;;;6.11;100.00;94683.50;5073535;28;20202;-76
2021/10/08 03:37:05;;;;;;;23.07;10.97;;;;;;;6.06;100.00;94678.78;5073415;28;20203;-77
2021/10/08 03:39:36;;;;;;;23.43;10.40;;;;;;;5.96;100.00;94680.63;5073416;28;20198;-77
2021/10/08 03:42:04;;;;;;;23.20;10.73;;;;;;;5.89;100.00;94674.41;5073245;28;20657;-76
2021/10/08 03:44:34;;;;;;;21.77;10.77;;;;;;;5.70;100.00;94677.97;5073177;28;20576;-76
2021/10/08 03:47:02;;;;;;;27.30;10.13;;;;;;;5.51;100.00;94674.56;5073453;28;20205;-76
2021/10/08 03:49:28;;;;;;;25.20;10.93;;;;;;;5.57;100.00;94680.91;5073229;28;20241;-77
2021/10/08 03:51:55;;;;;;;25.17;11.43;;;;;;;5.62;100.00;94683.06;5073332;28;20615;-76
2021/10/08 03:54:23;;;;;;;22.73;11.03;;;;;;;5.55;100.00;94682.84;5073084;28;20259;-76
2021/10/08 03:56:51;;;;;;;29.60;12.60;;;;;;;5.83;100.00;94678.41;5073123;28;20289;-76
2021/10/08 03:59:17;;;;;;;41.27;13.97;;;;;;;5.87;100.00;94677.13;5073254;28;20260;-77
2021/10/08 04:01:45;;;;;;;32.33;13.37;;;;;;;5.90;100.00;94670.84;5073093;28;20316;-77
2021/10/08 04:04:11;;;;;;;32.43;13.30;;;;;;;5.93;100.00;94666.19;5073060;28;20198;-78
2021/10/08 04:06:38;;;;;;;32.83;14.27;;;;;;;6.19;100.00;94673.19;5073128;28;20203;-77
2021/10/08 04:09:06;;;;;;;34.37;14.87;;;;;;;6.16;100.00;94668.34;5072975;28;20315;-77
2021/10/08 04:11:32;;;;;;;39.90;15.67;;;;;;;6.28;100.00;94672.31;5073183;28;20202;-77
2021/10/08 04:14:00;;;;;;;38.10;15.70;;;;;;;6.27;100.00;94675.84;5073141;28;20203;-77
2021/10/08 04:16:27;;;;;;;33.10;13.97;;;;;;;6.22;100.00;94680.69;5073092;28;20249;-77
2021/10/08 04:18:53;;;;;;;40.30;15.77;;;;;;;6.23;100.00;94682.31;5072356;28;20693;-77
2021/10/08 04:21:20;;;;;;;41.70;17.50;;;;;;;6.43;100.00;94674.34;5072685;28;20222;-78
2021/10/08 04:23:46;;;;;;;41.37;16.83;;;;;;;6.43;100.00;94679.53;5072762;28;20199;-78
2021/10/08 04:26:13;;;;;;;33.10;14.63;;;;;;;6.37;100.00;94683.53;5072900;28;20230;-78
2021/10/08 04:28:39;;;;;;;37.23;15.17;;;;;;;6.28;100.00;94685.28;5072914;28;20260;-78
2021/10/08 04:31:07;;;;;;;37.20;15.57;;;;;;;6.46;100.00;94681.81;5072784;28;20661;-78
2021/10/08 04:33:34;;;;;;;34.90;15.97;;;;;;;6.42;100.00;94688.28;5073117;28;20198;-77
2021/10/08 04:36:01;;;;;;;37.40;15.20;;;;;;;6.36;100.00;94687.13;5076846;28;20226;-77
2021/10/08 04:38:28;;;;;;;31.20;15.53;;;;;;;6.23;100.00;94678.91;5076703;28;20680;-77
2021/10/08 04:40:54;;;;;;;42.33;17.73;;;;;;;6.43;100.00;94684.72;5076612;28;20600;-77
2021/10/08 04:43:21;;;;;;;45.97;18.37;;;;;;;6.54;100.00;94678.47;5076826;28;20216;-77
2021/10/08 04:45:48;;;;;;;47.40;20.63;;;;;;;6.38;100.00;94673.97;5076544;28;20227;-77
2021/10/08 04:48:16;;;;;;;45.57;18.87;;;;;;;6.10;100.00;94676.72;5076581;28;20206;-77
2021/10/08 04:50:42;;;;;;;56.30;18.13;;;;;;;5.89;100.00;94677.78;5076537;28;20195;-78
2021/10/08 04:53:13;;;;;;;46.03;19.50;;;;;;;5.84;100.00;94680.03;5076364;28;20211;-77
2021/10/08 04:55:40;;;;;;;39.67;18.17;;;;;;;5.86;100.00;94679.88;5076647;28;20285;-78
2021/10/08 04:58:06;;;;;;;37.27;18.43;;;;;;;5.87;100.00;94678.91;5076500;28;20607;-77
2021/10/08 05:00:33;;;;;;;41.10;19.27;;;;;;;5.78;100.00;94678.03;5076567;28;20256;-77
2021/10/08 05:02:59;;;;;;;43.90;20.07;;;;;;;5.83;100.00;94682.75;5076214;28;20587;-77
2021/10/08 05:05:27;;;;;;;66.03;20.10;;;;;;;5.81;100.00;94679.50;5076063;28;20267;-78
2021/10/08 05:07:53;;;;;;;113.27;23.50;;;;;;;5.88;100.00;94686.53;5076206;28;20199;-77
2021/10/08 05:10:22;;;;;;;152.33;22.93;;;;;;;5.97;100.00;94678.88;5076355;28;20248;-76
2021/10/08 05:12:49;;;;;;;168.50;21.20;;;;;;;5.98;100.00;94685.66;5076284;28;20203;-76
2021/10/08 05:15:15;;;;;;;111.47;20.10;;;;;;;5.99;100.00;94684.72;5076037;28;20260;-76
2021/10/08 05:17:42;;;;;;;84.77;20.33;;;;;;;6.01;100.00;94677.59;5076028;28;20577;-77
2021/10/08 05:20:10;;;;;;;49.07;17.47;;;;;;;5.97;100.00;94677.09;5076167;28;20198;-77
2021/10/08 05:22:37;;;;;;;133.90;20.50;;;;;;;5.98;100.00;94686.50;5076001;28;20222;-77
2021/10/08 05:25:05;;;;;;;157.03;22.63;;;;;;;5.99;100.00;94684.72;5075875;28;20226;-77
2021/10/08 05:27:31;;;;;;;192.10;22.90;;;;;;;6.00;100.00;94681.16;5076089;28;20203;-76
2021/10/08 05:29:57;;;;;;;188.67;21.63;;;;;;;5.90;100.00;94681.22;5075816;28;20206;-77
2021/10/08 05:32:24;;;;;;;128.40;22.27;;;;;;;5.87;100.00;94687.50;5075887;28;20600;-77
2021/10/08 05:34:50;;;;;;;54.90;19.23;;;;;;;5.84;100.00;94684.41;5076220;28;20202;-77
2021/10/08 05:37:17;;;;;;;207.83;25.03;;;;;;;5.88;100.00;94685.75;5075895;28;20195;-77
2021/10/08 05:39:45;;;;;;;185.73;23.53;;;;;;;5.99;100.00;94684.72;5075858;28;20628;-77
2021/10/08 05:42:11;;;;;;;307.57;28.63;;;;;;;5.91;100.00;94691.44;5075837;28;20290;-76
2021/10/08 05:44:38;;;;;;;163.07;26.93;;;;;;;5.96;100.00;94695.34;5074973;28;20203;-77
2021/10/08 05:47:04;;;;;;;158.83;27.23;;;;;;;6.04;100.00;94690.25;5075667;28;20237;-77
2021/10/08 05:49:31;;;;;;;178.90;25.60;;;;;;;6.04;100.00;94701.44;5075702;28;20202;-77
2021/10/08 05:51:57;;;;;;;172.33;25.73;;;;;;;6.08;100.00;94699.38;5075759;28;20199;-77
2021/10/08 05:54:23;;;;;;;135.53;26.70;;;;;;;6.08;100.00;94692.41;5075542;28;20202;-77
2021/10/08 05:56:51;;;;;;;269.87;31.10;;;;;;;6.11;100.00;94706.84;5075536;28;20203;-77
2021/10/08 05:59:18;;;;;;;232.97;26.93;;;;;;;6.09;100.00;94704.38;5075204;28;20252;-76
2021/10/08 06:01:44;;;;;;;108.03;26.73;;;;;;;6.19;100.00;94703.50;5075178;28;20534;-77
2021/10/08 06:04:11;;;;;;;138.90;23.77;;;;;;;6.26;100.00;94707.13;5075356;28;20607;-77
2021/10/08 06:06:37;;;;;;;134.47;25.40;;;;;;;6.34;100.00;94706.38;5075301;28;20227;-77
2021/10/08 06:09:04;;;;;;;163.07;25.77;;;;;;;6.35;100.00;94706.22;5075236;28;20252;-78
2021/10/08 06:11:30;;;;;;;260.23;28.20;;;;;;;6.30;100.00;94708.47;5075549;28;20252;-77
2021/10/08 06:13:58;;;;;;;94.47;23.90;;;;;;;6.45;100.00;94712.13;5074942;28;20229;-77
2021/10/08 06:16:25;;;;;;;86.30;24.33;;;;;;;6.46;100.00;94710.34;5075483;28;20252;-77
2021/10/08 06:18:51;;;;;;;56.07;21.83;;;;;;;6.46;100.00;94705.16;5075139;28;20248;-77
2021/10/08 06:21:18;;;;;;;189.00;29.50;;;;;;;6.42;100.00;94699.47;5074939;28;20234;-77
2021/10/08 06:23:44;;;;;;;123.13;25.03;;;;;;;6.47;100.00;94699.00;5075076;28;20199;-77
2021/10/08 06:26:10;;;;;;;62.47;24.67;;;;;;;6.66;100.00;94705.75;5074867;28;20226;-77
2021/10/08 06:28:38;;;;;;;92.87;23.73;;;;;;;6.76;100.00;94703.06;5073921;28;20661;-77
2021/10/08 06:31:05;;;;;;;134.48;31.63;;;;;;;6.70;100.00;94693.31;5074024;28;20437;-77
2021/10/08 06:33:32;;;;;;;142.43;26.83;;;;;;;6.88;100.00;94695.81;5074918;28;20233;-76
2021/10/08 06:35:58;;;;;;;136.10;23.67;;;;;;;6.89;100.00;94700.06;5074750;28;20268;-78
2021/10/08 06:38:24;;;;;;;78.23;22.27;;;;;;;6.95;100.00;94700.25;5074657;28;20198;-77
2021/10/08 06:40:51;;;;;;;174.33;23.07;;;;;;;6.99;100.00;94706.75;5074448;28;20672;-77
2021/10/08 06:43:17;;;;;;;187.43;22.67;;;;;;;7.04;100.00;94699.34;5074561;28;20210;-77
2021/10/08 06:45:44;;;;;;;125.77;20.30;;;;;;;7.13;100.00;94700.19;5074272;28;20758;-78
2021/10/08 06:48:12;;;;;;;153.57;23.57;;;;;;;7.20;100.00;94710.75;5074533;28;20199;-77
2021/10/08 06:50:38;;;;;;;173.70;24.13;;;;;;;7.30;100.00;94711.44;5074657;28;20202;-77
2021/10/08 06:53:05;;;;;;;330.33;26.00;;;;;;;7.37;100.00;94702.03;5074525;28;20256;-77
2021/10/08 06:55:31;;;;;;;209.53;23.20;;;;;;;7.41;100.00;94707.72;5074381;28;20207;-77
2021/10/08 06:57:58;;;;;;;108.60;20.23;;;;;;;7.47;100.00;94712.31;5073613;28;20214;-77
2021/10/08 07:00:24;;;;;;;56.93;20.40;;;;;;;7.52;100.00;94710.03;5074431;28;20229;-77
2021/10/08 07:02:53;;;;;;;289.73;26.10;;;;;;;7.53;100.00;94706.47;5074237;28;20202;-77
2021/10/08 07:05:23;;;;;;;219.27;23.17;;;;;;;7.63;100.00;94706.34;5074137;28;20199;-76
2021/10/08 07:07:49;;;;;;;467.27;29.87;;;;;;;7.53;100.00;94703.09;5074131;28;20241;-76
2021/10/08 07:10:16;;;;;;;342.50;26.83;;;;;;;7.55;100.00;94708.94;5073904;28;20203;-76
2021/10/08 07:12:43;;;;;;;292.87;29.20;;;;;;;7.66;100.00;94706.03;5073940;28;20619;-77
2021/10/08 07:15:16;;;;;;;143.83;22.87;;;;;;;7.83;100.00;94706.03;5074036;28;20256;-76
2021/10/08 07:17:44;;;;;;;201.00;23.05;;;;;;;7.80;100.00;94703.78;5073772;28;20496;-78
2021/10/08 07:20:11;;;;;;;37.27;18.27;;;;;;;7.90;100.00;94700.06;5073800;28;20667;-77
2021/10/08 07:22:39;;;;;;;39.30;18.10;;;;;;;8.11;100.00;94698.75;5073508;28;20288;-77
2021/10/08 07:25:08;;;;;;;38.93;17.23;;;;;;;8.31;100.00;94699.25;5073654;28;20284;-77
2021/10/08 07:27:34;;;;;;;51.90;16.67;;;;;;;8.39;100.00;94703.63;5073429;28;20754;-77
2021/10/08 07:30:01;;;;;;;108.87;19.13;;;;;;;8.48;100.00;94705.31;5073734;28;20256;-77
2021/10/08 07:32:28;;;;;;;29.90;16.73;;;;;;;8.38;100.00;94704.63;5073529;28;20202;-76
2021/10/08 07:34:55;;;;;;;39.00;17.17;;;;;;;8.17;100.00;94707.72;5073508;28;20198;-77
2021/10/08 07:37:21;;;;;;;39.10;18.43;;;;;;;8.07;100.00;94708.66;5073483;28;20256;-78
2021/10/08 07:39:49;;;;;;;28.57;16.47;;;;;;;8.21;100.00;94715.03;5073679;28;20252;-77
2021/10/08 07:42:16;;;;;;;27.03;16.07;;;;;;;8.26;100.00;94711.94;5073373;28;20703;-76
2021/10/08 07:44:42;;;;;;;28.67;17.27;;;;;;;8.36;100.00;94706.56;5073482;28;20199;-77
2021/10/08 07:47:09;;;;;;;26.50;16.27;;;;;;;8.33;100.00;94712.91;5073175;28;20631;-77
2021/10/08 07:49:35;;;;;;;30.17;16.33;;;;;;;8.52;100.00;94709.19;5073395;28;20268;-77
2021/10/08 07:52:01;;;;;;;28.67;15.73;;;;;;;8.87;100.00;94697.56;5073228;28;20202;-78
2021/10/08 07:54:28;;;;;;;25.27;15.43;;;;;;;8.92;100.00;94702.28;5073550;28;20206;-77
2021/10/08 07:56:56;;;;;;;28.35;18.63;;;;;;;9.32;100.00;94702.31;5072709;28;20472;-77
2021/10/08 07:59:22;;;;;;;25.37;15.77;;;;;;;9.45;100.00;94702.56;5073269;28;20207;-77
2021/10/08 08:01:50;;;;;;;26.97;15.37;;;;;;;9.48;100.00;94701.44;5073288;28;20203;-77
2021/10/08 08:04:16;;;;;;;29.17;15.53;;;;;;;9.73;100.00;94704.72;5073000;28;21083;-78
2021/10/08 08:06:43;;;;;;;23.70;13.83;;;;;;;9.77;100.00;94698.16;5073253;28;20283;-78
2021/10/08 08:09:09;;;;;;;23.33;14.37;;;;;;;9.89;100.00;94701.19;5072823;28;20731;-77
2021/10/08 08:11:36;;;;;;;20.50;12.90;;;;;;;9.82;100.00;94706.28;5073090;28;20225;-77
2021/10/08 08:14:04;;;;;;;20.83;12.33;;;;;;;10.00;100.00;94700.78;5061249;28;20199;-77
2021/10/08 08:16:30;;;;;;;20.20;12.43;;;;;;;9.82;100.00;94701.06;5052748;28;20204;-77
2021/10/08 08:18:57;;;;;;;19.33;10.17;;;;;;;10.19;100.00;94699.50;5052715;28;20200;-78
2021/10/08 08:21:23;;;;;;;17.03;9.60;;;;;;;10.46;100.00;94692.13;5061783;28;20629;-76
2021/10/08 08:23:50;;;;;;;16.40;9.73;;;;;;;10.63;100.00;94695.44;5072824;28;20202;-77
2021/10/08 08:26:16;;;;;;;14.53;9.17;;;;;;;10.79;100.00;94697.91;5072200;28;20280;-76
2021/10/08 08:28:43;;;;;;;13.37;8.27;;;;;;;10.83;100.00;94695.72;5072911;28;20229;-77
2021/10/08 08:31:10;;;;;;;14.47;8.30;;;;;;;10.85;100.00;94691.13;5072745;28;20248;-77
2021/10/08 08:33:37;;;;;;;15.37;9.10;;;;;;;10.89;100.00;94693.22;5072533;28;20309;-77
2021/10/08 08:36:04;;;;;;;15.90;8.33;;;;;;;10.89;100.00;94695.00;5073014;28;20252;-76
2021/10/08 08:38:30;;;;;;;15.47;9.00;;;;;;;10.97;100.00;94696.72;5072730;28;20248;-77
2021/10/08 08:40:59;;;;;;;11.13;6.97;;;;;;;11.14;100.00;94689.50;5072759;28;20631;-77
2021/10/08 08:43:28;;;;;;;14.47;8.93;;;;;;;11.24;100.00;94700.50;5072707;28;20224;-76
2021/10/08 08:45:54;;;;;;;12.63;7.70;;;;;;;11.32;100.00;94694.38;5072476;28;20202;-76
2021/10/08 08:48:24;;;;;;;14.60;7.93;;;;;;;11.33;100.00;94696.81;5072771;28;20206;-77
2021/10/08 08:50:51;;;;;;;12.88;8.05;;;;;;;11.29;100.00;94693.75;5072679;28;20245;-77
2021/10/08 08:53:21;;;;;;;12.60;6.83;;;;;;;11.52;100.00;94686.78;5072685;28;20199;-76
2021/10/08 08:55:47;;;;;;;16.65;10.48;;;;;;;11.64;100.00;94691.34;5072202;28;20513;-77
2021/10/08 08:58:14;;;;;;;15.93;9.02;;;;;;;11.65;100.00;94686.91;5072445;28;20203;-77
2021/10/08 09:00:40;;;;;;;15.35;8.05;;;;;;;11.83;100.00;94692.56;5072367;28;20268;-77
2021/10/08 09:03:13;;;;;;;16.05;8.23;;;;;;;11.98;100.00;94689.91;5072578;28;20226;-77
2021/10/08 09:05:46;;;;;;;15.73;9.63;;;;;;;11.93;100.00;94679.19;5072605;28;20198;-77
2021/10/08 09:08:13;;;;;;;13.75;8.15;;;;;;;12.12;100.00;94685.59;5072580;28;20245;-77
2021/10/08 09:10:41;;;;;;;14.93;8.27;;;;;;;12.29;100.00;94695.84;5072490;28;20206;-76
2021/10/08 09:13:08;;;;;;;13.35;8.23;;;;;;;12.05;100.00;94686.56;5072349;28;20202;-76
2021/10/08 09:15:45;;;;;;;14.85;8.73;;;;;;;12.38;100.00;94676.38;5072283;28;20653;-77
2021/10/08 09:18:13;;;;;;;11.75;7.47;;;;;;;12.38;100.00;94692.09;5072498;28;20612;-76
2021/10/08 09:21:01;;;;;;;14.15;8.05;;;;;;;12.44;100.00;94693.13;5074317;28;20202;-77
2021/10/08 09:23:32;;;;;;;13.80;7.45;;;;;;;12.58;100.00;94687.81;5075895;28;20198;-78
2021/10/08 09:25:58;;;;;;;13.50;7.65;;;;;;;12.87;100.00;94683.41;5076041;28;20199;-78
2021/10/08 09:28:25;;;;;;;16.90;9.18;;;;;;;12.81;100.00;94678.91;5075730;28;20654;-78
2021/10/08 09:30:54;;;;;;;13.85;8.80;;;;;;;12.62;100.00;94679.59;5075923;28;20660;-77
2021/10/08 09:33:22;;;;;;;12.70;7.68;;;;;;;12.87;100.00;94683.41;5075719;28;20569;-76
2021/10/08 09:35:53;;;;;;;15.23;7.50;;;;;;;13.06;100.00;94681.91;5075830;28;20203;-77
2021/10/08 09:38:21;;;;;;;17.10;8.75;;;;;;;13.30;100.00;94682.41;5075908;28;20214;-76
2021/10/08 09:40:50;;;;;;;13.43;8.02;;;;;;;13.61;100.00;94671.47;5075705;28;20301;-76
2021/10/08 09:43:26;;;;;;;14.55;7.78;;;;;;;13.77;100.00;94672.97;5075713;28;20608;-77
2021/10/08 09:45:54;;;;;;;14.90;8.05;;;;;;;13.61;100.00;94673.31;5075612;28;20264;-76
2021/10/08 09:48:22;;;;;;;15.73;8.38;;;;;;;13.16;100.00;94671.06;5075478;28;20226;-77
2021/10/08 09:51:02;;;;;;;15.02;8.55;;;;;;;13.03;100.00;94671.00;5075219;28;20649;-77
2021/10/08 09:53:29;;;;;;;15.65;9.38;;;;;;;13.07;100.00;94677.44;5075554;28;20202;-77
2021/10/08 09:55:56;;;;;;;18.20;10.43;;;;;;;13.12;100.00;94675.06;5075463;28;20195;-77
2021/10/08 09:58:23;;;;;;;15.38;9.27;;;;;;;13.28;100.00;94669.50;5075337;28;20573;-76
2021/10/08 10:00:56;;;;;;;18.13;10.13;;;;;;;13.09;100.00;94667.56;5075181;28;20553;-77
2021/10/08 10:03:23;;;;;;;18.17;9.88;;;;;;;13.09;100.00;94670.19;5075406;28;20667;-76
2021/10/08 10:05:50;;;;;;;18.42;10.30;;;;;;;13.18;100.00;94663.81;5075273;28;20198;-77
2021/10/08 10:08:18;;;;;;;16.65;8.90;;;;;;;13.17;100.00;94670.03;5075144;28;20303;-76
2021/10/08 10:10:45;;;;;;;17.10;10.00;;;;;;;13.35;100.00;94660.88;5075185;28;20206;-77
2021/10/08 10:13:12;;;;;;;15.73;9.18;;;;;;;13.49;100.00;94670.44;5075014;28;20209;-76
2021/10/08 10:15:41;;;;;;;18.85;9.07;;;;;;;13.17;100.00;94669.25;5074911;28;20256;-77
2021/10/08 10:18:10;;;;;;;19.25;9.70;;;;;;;13.42;100.00;94669.59;5075191;28;20571;-77
2021/10/08 10:20:39;;;;;;;15.15;9.73;;;;;;;13.06;100.00;94665.38;5074532;28;20229;-76
2021/10/08 10:23:08;;;;;;;18.27;9.65;;;;;;;13.10;100.00;94664.75;5074623;28;20234;-79
2021/10/08 10:25:37;;;;;;;17.90;9.70;;;;;;;13.33;100.00;94679.44;5074800;28;20195;-77
2021/10/08 10:28:05;;;;;;;18.02;10.40;;;;;;;12.64;100.00;94688.06;5074595;28;20317;-78
2021/10/08 10:30:32;;;;;;;17.00;10.30;;;;;;;13.06;100.00;94673.22;5074794;28;20277;-78
2021/10/08 10:33:01;;;;;;;20.92;10.88;;;;;;;13.12;100.00;94675.88;5074695;28;20203;-77
2021/10/08 10:35:45;;;;;;;15.57;8.40;;;;;;;13.24;100.00;94673.53;5074647;28;20203;-78
2021/10/08 10:38:24;;;;;;;14.43;7.82;;;;;;;13.70;100.00;94677.34;5074519;28;20210;-77
2021/10/08 10:41:21;;;;;;;17.38;7.50;;;;;;;13.78;100.00;94673.75;5074287;28;20210;-78
2021/10/08 10:43:51;;;;;;;20.30;8.02;;;;;;;14.14;100.00;94667.34;5071852;28;20252;-78
2021/10/08 10:46:40;;;;;;;14.30;7.68;;;;;;;14.84;100.00;94659.09;5074384;28;20202;-78
2021/10/08 10:49:44;;;;;;;10.98;7.65;;;;;;;14.58;100.00;94658.88;5074166;28;20209;-78
2021/10/08 10:52:14;;;;;;;12.23;6.97;;;;;;;14.77;100.00;94662.56;5074073;28;20595;-78
2021/10/08 10:55:17;;;;;;;13.43;7.53;;;;;;;15.05;100.00;94661.47;5074253;28;20207;-77
2021/10/08 10:58:02;;;;;;;12.02;7.25;;;;;;;14.03;100.00;94666.94;5074420;28;20206;-77
2021/10/08 11:00:36;;;;;;;13.05;8.02;;;;;;;13.56;100.00;94665.22;5074292;28;20202;-77
2021/10/08 11:03:11;;;;;;;18.10;8.20;;;;;;;13.72;100.00;94664.03;5073969;28;20718;-77
2021/10/08 11:05:39;;;;;;;16.30;9.50;;;;;;;13.99;100.00;94655.22;5073945;28;20241;-78
2021/10/08 11:08:08;;;;;;;14.18;9.05;;;;;;;13.85;100.00;94654.38;5074101;28;20241;-78
2021/10/08 11:10:36;;;;;;;13.60;8.32;;;;;;;14.15;100.00;94654.03;5074046;28;20198;-78
2021/10/08 11:13:26;;;;;;;15.23;8.32;;;;;;;14.66;100.00;94650.03;5073830;28;20202;-77
2021/10/08 11:15:54;;;;;;;15.13;8.13;;;;;;;14.92;100.00;94653.63;5073852;28;20206;-79
2021/10/08 11:18:38;;;;;;;13.07;8.25;;;;;;;14.83;100.00;94652.22;5073662;28;20206;-78
2021/10/08 11:21:05;;;;;;;14.65;8.65;;;;;;;14.25;100.00;94640.50;5073619;28;20195;-78